sensor_id;sensor_type;location;lat;lon;timestamp;pressure;altitude;pressure_sealevel;temperature;humidity
64886;BME280;51514;52.206;5.114;2023-04-27T00:01:10;102213.88;;;5.60;76.47
64886;BME280;51514;52.206;5.114;2023-04-27T00:03:36;102210.25;;;5.61;76.86
64886;BME280;51514;52.206;5.114;2023-04-27T00:06:01;102208.53;;;5.60;76.94
64886;BME280;51514;52.206;5.114;2023-04-27T00:08:27;102214.91;;;5.57;77.13
64886;BME280;51514;52.206;5.114;2023-04-27T00:10:53;102215.59;;;5.61;77.72
64886;BME280;51514;52.206;5.114;2023-04-27T00:13:18;102205.47;;;5.66;77.36
64886;BME280;51514;52.206;5.114;2023-04-27T00:15:43;102210.81;;;5.66;77.38
64886;BME280;51514;52.206;5.114;2023-04-27T00:18:09;102217.88;;;5.67;77.02
64886;BME280;51514;52.206;5.114;2023-04-27T00:20:35;102216.34;;;5.63;76.76
64886;BME280;51514;52.206;5.114;2023-04-27T00:23:00;102211.19;;;5.60;77.59
64886;BME280;51514;52.206;5.114;2023-04-27T00:25:25;102216.72;;;5.57;77.16
64886;BME280;51514;52.206;5.114;2023-04-27T00:27:51;102212.34;;;5.56;77.15
64886;BME280;51514;52.206;5.114;2023-04-27T00:30:16;102204.09;;;5.44;76.60
64886;BME280;51514;52.206;5.114;2023-04-27T00:32:41;102211.63;;;5.38;77.02
64886;BME280;51514;52.206;5.114;2023-04-27T00:35:07;102206.72;;;5.30;77.07
64886;BME280;51514;52.206;5.114;2023-04-27T00:37:32;102215.72;;;5.29;76.57
64886;BME280;51514;52.206;5.114;2023-04-27T00:39:57;102207.03;;;5.26;76.82
64886;BME280;51514;52.206;5.114;2023-04-27T00:42:23;102215.03;;;5.26;76.99
64886;BME280;51514;52.206;5.114;2023-04-27T00:44:49;102215.72;;;5.29;77.05
64886;BME280;51514;52.206;5.114;2023-04-27T00:47:14;102203.00;;;5.33;76.55
64886;BME280;51514;52.206;5.114;2023-04-27T00:49:41;102214.66;;;5.32;76.45
64886;BME280;51514;52.206;5.114;2023-04-27T00:52:06;102212.06;;;5.30;76.03
64886;BME280;51514;52.206;5.114;2023-04-27T00:54:32;102207.09;;;5.24;76.30
64886;BME280;51514;52.206;5.114;2023-04-27T00:56:57;102203.75;;;5.21;76.39
64886;BME280;51514;52.206;5.114;2023-04-27T00:59:24;102195.63;;;5.22;76.90
64886;BME280;51514;52.206;5.114;2023-04-27T01:01:49;102196.66;;;5.20;76.93
64886;BME280;51514;52.206;5.114;2023-04-27T01:04:15;102201.19;;;5.19;76.91
64886;BME280;51514;52.206;5.114;2023-04-27T01:06:42;102191.88;;;5.10;76.49
64886;BME280;51514;52.206;5.114;2023-04-27T01:09:07;102201.91;;;5.07;76.74
64886;BME280;51514;52.206;5.114;2023-04-27T01:11:33;102198.28;;;5.08;76.97
64886;BME280;51514;52.206;5.114;2023-04-27T01:14:03;102201.91;;;5.07;76.58
64886;BME280;51514;52.206;5.114;2023-04-27T01:16:29;102204.75;;;5.04;76.95
64886;BME280;51514;52.206;5.114;2023-04-27T01:18:55;102206.47;;;5.05;76.90
64886;BME280;51514;52.206;5.114;2023-04-27T01:21:21;102212.78;;;5.04;76.62
64886;BME280;51514;52.206;5.114;2023-04-27T01:23:46;102214.59;;;5.03;76.62
64886;BME280;51514;52.206;5.114;2023-04-27T01:26:12;102203.28;;;4.98;76.39
64886;BME280;51514;52.206;5.114;2023-04-27T01:28:40;102208.81;;;4.95;76.64
64886;BME280;51514;52.206;5.114;2023-04-27T01:31:05;102201.16;;;4.89;76.69
64886;BME280;51514;52.206;5.114;2023-04-27T01:33:31;102198.94;;;4.82;77.50
64886;BME280;51514;52.206;5.114;2023-04-27T01:35:56;102199.53;;;4.71;77.33
64886;BME280;51514;52.206;5.114;2023-04-27T01:38:21;102196.38;;;4.64;77.46
64886;BME280;51514;52.206;5.114;2023-04-27T01:40:48;102199.78;;;4.66;77.53
64886;BME280;51514;52.206;5.114;2023-04-27T01:43:13;102193.50;;;4.67;77.30
64886;BME280;51514;52.206;5.114;2023-04-27T01:45:39;102190.84;;;4.67;77.14
64886;BME280;51514;52.206;5.114;2023-04-27T01:48:04;102187.38;;;4.65;77.25
64886;BME280;51514;52.206;5.114;2023-04-27T01:50:30;102191.13;;;4.63;77.16
64886;BME280;51514;52.206;5.114;2023-04-27T01:52:55;102184.31;;;4.57;77.15
64886;BME280;51514;52.206;5.114;2023-04-27T01:55:21;102180.00;;;4.55;77.38
64886;BME280;51514;52.206;5.114;2023-04-27T01:57:46;102186.88;;;4.59;77.03
64886;BME280;51514;52.206;5.114;2023-04-27T02:00:12;102183.09;;;4.63;77.16
64886;BME280;51514;52.206;5.114;2023-04-27T02:02:37;102192.72;;;4.65;77.20
64886;BME280;51514;52.206;5.114;2023-04-27T02:05:03;102176.63;;;4.67;77.52
64886;BME280;51514;52.206;5.114;2023-04-27T02:07:28;102182.75;;;4.69;77.20
64886;BME280;51514;52.206;5.114;2023-04-27T02:09:54;102181.00;;;4.68;77.45
64886;BME280;51514;52.206;5.114;2023-04-27T02:12:19;102179.19;;;4.68;77.55
64886;BME280;51514;52.206;5.114;2023-04-27T02:14:44;102177.69;;;4.64;77.76
64886;BME280;51514;52.206;5.114;2023-04-27T02:17:10;102177.84;;;4.61;78.01
64886;BME280;51514;52.206;5.114;2023-04-27T02:19:35;102184.31;;;4.57;78.09
64886;BME280;51514;52.206;5.114;2023-04-27T02:22:16;102179.31;;;4.51;78.17
64886;BME280;51514;52.206;5.114;2023-04-27T02:24:44;102186.38;;;4.52;78.29
64886;BME280;51514;52.206;5.114;2023-04-27T02:27:10;102177.50;;;4.52;78.43
64886;BME280;51514;52.206;5.114;2023-04-27T02:29:35;102182.84;;;4.52;78.40
64886;BME280;51514;52.206;5.114;2023-04-27T02:32:04;102174.84;;;4.52;78.39
64886;BME280;51514;52.206;5.114;2023-04-27T02:34:30;102177.59;;;4.50;78.16
64886;BME280;51514;52.206;5.114;2023-04-27T02:36:55;102173.97;;;4.51;78.21
64886;BME280;51514;52.206;5.114;2023-04-27T02:39:21;102162.44;;;4.51;78.54
64886;BME280;51514;52.206;5.114;2023-04-27T02:41:47;102164.31;;;4.49;78.69
64886;BME280;51514;52.206;5.114;2023-04-27T02:44:13;102166.06;;;4.50;78.10
64886;BME280;51514;52.206;5.114;2023-04-27T02:46:38;102168.81;;;4.48;78.20
64886;BME280;51514;52.206;5.114;2023-04-27T02:49:03;102164.31;;;4.49;78.06
64886;BME280;51514;52.206;5.114;2023-04-27T02:51:29;102161.56;;;4.50;78.58
64886;BME280;51514;52.206;5.114;2023-04-27T02:53:54;102165.81;;;4.54;78.54
64886;BME280;51514;52.206;5.114;2023-04-27T02:56:20;102162.94;;;4.57;78.40
64886;BME280;51514;52.206;5.114;2023-04-27T02:58:45;102164.66;;;4.58;78.12
64886;BME280;51514;52.206;5.114;2023-04-27T03:01:12;102164.66;;;4.58;77.92
64886;BME280;51514;52.206;5.114;2023-04-27T03:03:37;102170.78;;;4.60;77.73
64886;BME280;51514;52.206;5.114;2023-04-27T03:06:02;102164.50;;;4.61;77.98
64886;BME280;51514;52.206;5.114;2023-04-27T03:08:28;102168.09;;;4.60;77.65
64886;BME280;51514;52.206;5.114;2023-04-27T03:10:53;102178.78;;;4.60;77.65
64886;BME280;51514;52.206;5.114;2023-04-27T03:13:18;102186.88;;;4.59;77.89
64886;BME280;51514;52.206;5.114;2023-04-27T03:15:44;102178.97;;;4.57;77.50
64886;BME280;51514;52.206;5.114;2023-04-27T03:18:09;102177.31;;;4.55;77.46
64886;BME280;51514;52.206;5.114;2023-04-27T03:20:35;102183.63;;;4.54;77.87
64886;BME280;51514;52.206;5.114;2023-04-27T03:23:00;102180.97;;;4.54;77.74
64886;BME280;51514;52.206;5.114;2023-04-27T03:25:26;102185.31;;;4.55;78.10
64886;BME280;51514;52.206;5.114;2023-04-27T03:27:51;102181.13;;;4.51;77.53
64886;BME280;51514;52.206;5.114;2023-04-27T03:30:16;102181.56;;;4.43;77.27
64886;BME280;51514;52.206;5.114;2023-04-27T03:32:42;102183.78;;;4.35;77.53
64886;BME280;51514;52.206;5.114;2023-04-27T03:35:07;102182.25;;;4.31;77.49
64886;BME280;51514;52.206;5.114;2023-04-27T03:37:33;102182.41;;;4.28;78.05
64886;BME280;51514;52.206;5.114;2023-04-27T03:39:59;102169.84;;;4.30;77.96
64886;BME280;51514;52.206;5.114;2023-04-27T03:42:24;102183.72;;;4.36;78.04
64886;BME280;51514;52.206;5.114;2023-04-27T03:44:50;102184.50;;;4.38;77.74
64886;BME280;51514;52.206;5.114;2023-04-27T03:47:15;102177.66;;;4.33;77.64
64886;BME280;51514;52.206;5.114;2023-04-27T03:49:41;102178.03;;;4.27;77.83
64886;BME280;51514;52.206;5.114;2023-04-27T03:52:06;102178.53;;;4.18;77.32
64886;BME280;51514;52.206;5.114;2023-04-27T03:54:31;102187.06;;;4.09;78.29
64886;BME280;51514;52.206;5.114;2023-04-27T03:56:57;102186.28;;;4.07;78.53
64886;BME280;51514;52.206;5.114;2023-04-27T03:59:22;102184.41;;;4.09;78.28
64886;BME280;51514;52.206;5.114;2023-04-27T04:01:47;102193.50;;;4.04;78.14
64886;BME280;51514;52.206;5.114;2023-04-27T04:04:13;102193.50;;;4.04;78.29
64886;BME280;51514;52.206;5.114;2023-04-27T04:06:38;102192.41;;;4.09;78.35
64886;BME280;51514;52.206;5.114;2023-04-27T04:09:03;102193.94;;;4.13;79.00
64886;BME280;51514;52.206;5.114;2023-04-27T04:11:29;102182.16;;;4.17;77.84
64886;BME280;51514;52.206;5.114;2023-04-27T04:13:54;102191.88;;;4.18;78.45
64886;BME280;51514;52.206;5.114;2023-04-27T04:16:19;102189.13;;;4.19;78.28
64886;BME280;51514;52.206;5.114;2023-04-27T04:18:45;102200.50;;;4.23;78.25
64886;BME280;51514;52.206;5.114;2023-04-27T04:21:10;102196.13;;;4.22;78.38
64886;BME280;51514;52.206;5.114;2023-04-27T04:23:36;102201.19;;;4.26;79.04
64886;BME280;51514;52.206;5.114;2023-04-27T04:26:02;102195.69;;;4.29;78.79
64886;BME280;51514;52.206;5.114;2023-04-27T04:28:27;102200.94;;;4.31;78.21
64886;BME280;51514;52.206;5.114;2023-04-27T04:30:53;102198.09;;;4.34;78.97
64886;BME280;51514;52.206;5.114;2023-04-27T04:33:18;102194.47;;;4.35;78.61
64886;BME280;51514;52.206;5.114;2023-04-27T04:35:44;102197.91;;;4.37;78.15
64886;BME280;51514;52.206;5.114;2023-04-27T04:38:10;102201.53;;;4.36;78.00
64886;BME280;51514;52.206;5.114;2023-04-27T04:40:39;102206.78;;;4.37;78.36
64886;BME280;51514;52.206;5.114;2023-04-27T04:43:05;102217.41;;;4.39;78.39
64886;BME280;51514;52.206;5.114;2023-04-27T04:45:31;102212.75;;;4.43;78.21
64886;BME280;51514;52.206;5.114;2023-04-27T04:47:56;102228.84;;;4.41;78.13
64886;BME280;51514;52.206;5.114;2023-04-27T04:50:22;102224.47;;;4.40;77.94
64886;BME280;51514;52.206;5.114;2023-04-27T04:52:48;102220.84;;;4.41;78.31
64886;BME280;51514;52.206;5.114;2023-04-27T04:55:13;102222.56;;;4.42;78.47
64886;BME280;51514;52.206;5.114;2023-04-27T04:57:39;102216.16;;;4.45;78.52
64886;BME280;51514;52.206;5.114;2023-04-27T05:00:05;102223.06;;;4.49;79.26
64886;BME280;51514;52.206;5.114;2023-04-27T05:02:35;102215.94;;;4.49;78.61
64886;BME280;51514;52.206;5.114;2023-04-27T05:05:00;102214.97;;;4.50;78.58
64886;BME280;51514;52.206;5.114;2023-04-27T05:07:25;102214.81;;;4.53;78.62
64886;BME280;51514;52.206;5.114;2023-04-27T05:09:51;102217.28;;;4.56;78.74
64886;BME280;51514;52.206;5.114;2023-04-27T05:12:16;102208.34;;;4.57;78.90
64886;BME280;51514;52.206;5.114;2023-04-27T05:14:41;102218.84;;;4.60;79.14
64886;BME280;51514;52.206;5.114;2023-04-27T05:17:08;102224.78;;;4.65;79.41
64886;BME280;51514;52.206;5.114;2023-04-27T05:19:33;102215.66;;;4.69;79.68
64886;BME280;51514;52.206;5.114;2023-04-27T05:21:58;102227.91;;;4.73;80.12
64886;BME280;51514;52.206;5.114;2023-04-27T05:24:25;102224.94;;;4.78;79.75
64886;BME280;51514;52.206;5.114;2023-04-27T05:26:50;102223.94;;;4.81;78.85
64886;BME280;51514;52.206;5.114;2023-04-27T05:29:15;102222.91;;;4.83;78.60
64886;BME280;51514;52.206;5.114;2023-04-27T05:31:41;102234.16;;;4.88;78.96
64886;BME280;51514;52.206;5.114;2023-04-27T05:34:07;102229.44;;;4.93;78.33
64886;BME280;51514;52.206;5.114;2023-04-27T05:36:34;102232.59;;;5.00;78.23
64886;BME280;51514;52.206;5.114;2023-04-27T05:39:00;102226.13;;;5.04;78.29
64886;BME280;51514;52.206;5.114;2023-04-27T05:41:25;102231.09;;;5.10;78.75
64886;BME280;51514;52.206;5.114;2023-04-27T05:43:50;102226.38;;;5.15;78.77
64886;BME280;51514;52.206;5.114;2023-04-27T05:46:17;102231.09;;;5.26;78.48
64886;BME280;51514;52.206;5.114;2023-04-27T05:48:43;102232.44;;;5.33;78.50
64886;BME280;51514;52.206;5.114;2023-04-27T05:51:08;102229.31;;;5.40;78.56
64886;BME280;51514;52.206;5.114;2023-04-27T05:53:33;102232.38;;;5.48;78.88
64886;BME280;51514;52.206;5.114;2023-04-27T05:55:59;102227.69;;;5.52;77.71
64886;BME280;51514;52.206;5.114;2023-04-27T05:58:25;102219.41;;;5.57;77.37
64886;BME280;51514;52.206;5.114;2023-04-27T06:00:52;102227.72;;;5.66;78.00
64886;BME280;51514;52.206;5.114;2023-04-27T06:03:17;102226.59;;;5.70;77.14
64886;BME280;51514;52.206;5.114;2023-04-27T06:05:43;102218.88;;;5.80;77.21
64886;BME280;51514;52.206;5.114;2023-04-27T06:08:09;102221.88;;;5.90;77.48
64886;BME280;51514;52.206;5.114;2023-04-27T06:10:35;102221.59;;;5.94;77.12
64886;BME280;51514;52.206;5.114;2023-04-27T06:13:00;102218.53;;;6.00;77.18
64886;BME280;51514;52.206;5.114;2023-04-27T06:15:26;102222.75;;;6.04;77.44
64886;BME280;51514;52.206;5.114;2023-04-27T06:17:51;102217.94;;;6.09;76.78
64886;BME280;51514;52.206;5.114;2023-04-27T06:20:16;102215.63;;;6.17;77.60
64886;BME280;51514;52.206;5.114;2023-04-27T06:22:42;102226.44;;;6.30;77.30
64886;BME280;51514;52.206;5.114;2023-04-27T06:25:07;102220.63;;;6.38;76.71
64886;BME280;51514;52.206;5.114;2023-04-27T06:27:33;102226.78;;;6.52;77.40
64886;BME280;51514;52.206;5.114;2023-04-27T06:29:59;102226.94;;;6.64;77.12
64886;BME280;51514;52.206;5.114;2023-04-27T06:32:24;102228.38;;;6.69;75.78
64886;BME280;51514;52.206;5.114;2023-04-27T06:34:50;102223.47;;;6.76;76.17
64886;BME280;51514;52.206;5.114;2023-04-27T06:37:16;102229.28;;;6.82;76.24
64886;BME280;51514;52.206;5.114;2023-04-27T06:39:44;102226.66;;;6.95;75.96
64886;BME280;51514;52.206;5.114;2023-04-27T06:42:10;102230.78;;;7.01;75.30
64886;BME280;51514;52.206;5.114;2023-04-27T06:44:35;102233.59;;;7.12;74.74
64886;BME280;51514;52.206;5.114;2023-04-27T06:47:01;102229.09;;;7.25;74.74
64886;BME280;51514;52.206;5.114;2023-04-27T06:49:26;102220.22;;;7.37;74.13
64886;BME280;51514;52.206;5.114;2023-04-27T06:51:51;102223.91;;;7.49;73.83
64886;BME280;51514;52.206;5.114;2023-04-27T06:54:17;102220.47;;;7.59;73.46
64886;BME280;51514;52.206;5.114;2023-04-27T06:56:42;102213.50;;;7.69;72.95
64886;BME280;51514;52.206;5.114;2023-04-27T06:59:09;102217.41;;;7.78;71.96
64886;BME280;51514;52.206;5.114;2023-04-27T07:01:34;102219.97;;;7.92;71.99
64886;BME280;51514;52.206;5.114;2023-04-27T07:03:59;102223.59;;;8.04;70.37
64886;BME280;51514;52.206;5.114;2023-04-27T07:06:25;102220.16;;;8.15;70.60
64886;BME280;51514;52.206;5.114;2023-04-27T07:08:50;102221.75;;;8.30;69.60
64886;BME280;51514;52.206;5.114;2023-04-27T07:11:16;102231.00;;;8.38;68.19
64886;BME280;51514;52.206;5.114;2023-04-27T07:13:41;102230.88;;;8.53;67.06
64886;BME280;51514;52.206;5.114;2023-04-27T07:16:07;102230.97;;;8.64;67.22
64886;BME280;51514;52.206;5.114;2023-04-27T07:18:32;102231.03;;;8.75;66.27
64886;BME280;51514;52.206;5.114;2023-04-27T07:20:58;102226.97;;;8.93;66.92
64886;BME280;51514;52.206;5.114;2023-04-27T07:23:23;102226.38;;;9.01;63.99
64886;BME280;51514;52.206;5.114;2023-04-27T07:25:49;102224.28;;;9.17;65.15
64886;BME280;51514;52.206;5.114;2023-04-27T07:28:15;102223.47;;;9.28;63.87
64886;BME280;51514;52.206;5.114;2023-04-27T07:30:40;102222.88;;;9.35;60.53
64886;BME280;51514;52.206;5.114;2023-04-27T07:33:07;102222.78;;;9.48;60.45
64886;BME280;51514;52.206;5.114;2023-04-27T07:35:33;102217.22;;;9.62;62.58
64886;BME280;51514;52.206;5.114;2023-04-27T07:37:59;102218.06;;;9.74;59.49
64886;BME280;51514;52.206;5.114;2023-04-27T07:40:26;102207.44;;;9.83;60.75
64886;BME280;51514;52.206;5.114;2023-04-27T07:42:52;102209.63;;;9.89;59.81
64886;BME280;51514;52.206;5.114;2023-04-27T07:45:18;102218.47;;;10.03;58.76
64886;BME280;51514;52.206;5.114;2023-04-27T07:47:43;102224.00;;;10.12;56.85
64886;BME280;51514;52.206;5.114;2023-04-27T07:50:09;102223.53;;;10.18;56.34
64886;BME280;51514;52.206;5.114;2023-04-27T07:52:35;102216.06;;;10.22;55.83
64886;BME280;51514;52.206;5.114;2023-04-27T07:55:01;102219.72;;;10.21;56.42
64886;BME280;51514;52.206;5.114;2023-04-27T07:57:27;102221.06;;;10.15;54.71
64886;BME280;51514;52.206;5.114;2023-04-27T07:59:53;102225.81;;;10.12;53.76
64886;BME280;51514;52.206;5.114;2023-04-27T08:02:18;102229.41;;;10.23;56.37
64886;BME280;51514;52.206;5.114;2023-04-27T08:04:43;102212.84;;;10.28;54.21
64886;BME280;51514;52.206;5.114;2023-04-27T08:07:08;102220.94;;;10.39;54.67
64886;BME280;51514;52.206;5.114;2023-04-27T08:09:34;102221.91;;;10.49;54.42
64886;BME280;51514;52.206;5.114;2023-04-27T08:12:00;102218.22;;;10.61;55.13
64886;BME280;51514;52.206;5.114;2023-04-27T08:14:27;102213.94;;;10.70;52.15
64886;BME280;51514;52.206;5.114;2023-04-27T08:16:52;102222.81;;;10.82;53.10
64886;BME280;51514;52.206;5.114;2023-04-27T08:19:17;102221.38;;;10.78;51.90
64886;BME280;51514;52.206;5.114;2023-04-27T08:21:43;102224.28;;;10.86;52.67
64886;BME280;51514;52.206;5.114;2023-04-27T08:24:09;102223.28;;;10.98;52.03
64886;BME280;51514;52.206;5.114;2023-04-27T08:26:34;102223.38;;;11.08;53.16
64886;BME280;51514;52.206;5.114;2023-04-27T08:29:01;102216.25;;;11.07;53.28
64886;BME280;51514;52.206;5.114;2023-04-27T08:31:26;102211.72;;;11.07;52.69
64886;BME280;51514;52.206;5.114;2023-04-27T08:33:52;102205.09;;;11.11;52.40
64886;BME280;51514;52.206;5.114;2023-04-27T08:36:20;102215.84;;;11.22;51.93
64886;BME280;51514;52.206;5.114;2023-04-27T08:38:48;102207.25;;;11.17;51.65
64886;BME280;51514;52.206;5.114;2023-04-27T08:41:20;102214.38;;;11.18;52.60
64886;BME280;51514;52.206;5.114;2023-04-27T08:43:47;102206.94;;;11.31;51.79
64886;BME280;51514;52.206;5.114;2023-04-27T08:48:45;102202.66;;;11.50;51.46
64886;BME280;51514;52.206;5.114;2023-04-27T08:51:13;102203.53;;;11.71;53.62
64886;BME280;51514;52.206;5.114;2023-04-27T08:53:44;102204.13;;;11.75;50.94
64886;BME280;51514;52.206;5.114;2023-04-27T08:56:11;102204.03;;;11.76;50.10
64886;BME280;51514;52.206;5.114;2023-04-27T08:58:37;102205.59;;;11.79;49.70
64886;BME280;51514;52.206;5.114;2023-04-27T09:01:06;102205.66;;;11.88;50.56
64886;BME280;51514;52.206;5.114;2023-04-27T09:03:32;102213.88;;;12.07;50.19
64886;BME280;51514;52.206;5.114;2023-04-27T09:05:59;102205.53;;;12.20;50.54
64886;BME280;51514;52.206;5.114;2023-04-27T09:08:25;102196.31;;;12.32;49.77
64886;BME280;51514;52.206;5.114;2023-04-27T09:10:51;102200.78;;;12.43;48.12
64886;BME280;51514;52.206;5.114;2023-04-27T09:13:17;102201.66;;;12.53;48.44
64886;BME280;51514;52.206;5.114;2023-04-27T09:15:48;102200.69;;;12.73;48.96
64886;BME280;51514;52.206;5.114;2023-04-27T09:18:21;102203.84;;;12.88;46.56
64886;BME280;51514;52.206;5.114;2023-04-27T09:20:51;102198.16;;;12.91;47.69
64886;BME280;51514;52.206;5.114;2023-04-27T09:23:32;102191.88;;;12.91;48.61
64886;BME280;51514;52.206;5.114;2023-04-27T09:26:03;102189.91;;;13.02;46.89
64886;BME280;51514;52.206;5.114;2023-04-27T09:28:32;102182.25;;;13.17;47.30
64886;BME280;51514;52.206;5.114;2023-04-27T09:30:59;102183.97;;;13.18;45.05
64886;BME280;51514;52.206;5.114;2023-04-27T09:33:27;102187.50;;;13.28;46.59
64886;BME280;51514;52.206;5.114;2023-04-27T09:35:53;102185.22;;;13.24;45.86
64886;BME280;51514;52.206;5.114;2023-04-27T09:38:20;102186.19;;;13.13;45.83
64886;BME280;51514;52.206;5.114;2023-04-27T09:40:48;102197.03;;;13.13;46.06
64886;BME280;51514;52.206;5.114;2023-04-27T09:43:14;102179.53;;;13.27;45.33
64886;BME280;51514;52.206;5.114;2023-04-27T09:45:39;102181.22;;;13.47;46.94
64886;BME280;51514;52.206;5.114;2023-04-27T09:48:05;102173.94;;;13.47;44.00
64886;BME280;51514;52.206;5.114;2023-04-27T09:50:35;102171.09;;;13.49;45.08
64886;BME280;51514;52.206;5.114;2023-04-27T09:53:01;102167.09;;;13.43;43.86
64886;BME280;51514;52.206;5.114;2023-04-27T09:55:31;102174.91;;;13.56;46.29
64886;BME280;51514;52.206;5.114;2023-04-27T09:58:31;102169.91;;;13.71;45.37
64886;BME280;51514;52.206;5.114;2023-04-27T10:03:57;102173.31;;;13.73;42.20
64886;BME280;51514;52.206;5.114;2023-04-27T10:09:02;102174.88;;;13.75;46.30
64886;BME280;51514;52.206;5.114;2023-04-27T10:11:38;102171.59;;;13.81;43.69
64886;BME280;51514;52.206;5.114;2023-04-27T10:14:06;102173.84;;;13.86;44.40
64886;BME280;51514;52.206;5.114;2023-04-27T10:16:50;102168.19;;;13.70;44.81
64886;BME280;51514;52.206;5.114;2023-04-27T10:19:16;102174.19;;;13.73;44.23
64886;BME280;51514;52.206;5.114;2023-04-27T10:24:41;102168.69;;;13.93;44.38
64886;BME280;51514;52.206;5.114;2023-04-27T10:27:10;102164.94;;;14.03;44.36
64886;BME280;51514;52.206;5.114;2023-04-27T10:32:09;102168.66;;;14.02;45.32
64886;BME280;51514;52.206;5.114;2023-04-27T10:34:35;102165.22;;;14.00;44.95
64886;BME280;51514;52.206;5.114;2023-04-27T10:37:08;102163.28;;;13.93;44.11
64886;BME280;51514;52.206;5.114;2023-04-27T10:39:37;102166.97;;;13.92;43.40
64886;BME280;51514;52.206;5.114;2023-04-27T10:42:03;102166.94;;;14.01;43.27
64886;BME280;51514;52.206;5.114;2023-04-27T10:44:30;102165.03;;;14.11;43.44
64886;BME280;51514;52.206;5.114;2023-04-27T10:46:57;102156.72;;;14.22;43.82
64886;BME280;51514;52.206;5.114;2023-04-27T10:49:28;102163.09;;;14.31;42.96
64886;BME280;51514;52.206;5.114;2023-04-27T10:51:56;102165.47;;;14.44;43.75
64886;BME280;51514;52.206;5.114;2023-04-27T10:54:26;102158.19;;;14.44;41.04
64886;BME280;51514;52.206;5.114;2023-04-27T10:56:52;102158.19;;;14.44;42.01
64886;BME280;51514;52.206;5.114;2023-04-27T10:59:17;102153.13;;;14.59;42.70
64886;BME280;51514;52.206;5.114;2023-04-27T11:01:47;102157.75;;;14.67;38.79
64886;BME280;51514;52.206;5.114;2023-04-27T11:04:12;102158.25;;;14.80;40.49
64886;BME280;51514;52.206;5.114;2023-04-27T11:06:42;102146.38;;;14.81;40.34
64886;BME280;51514;52.206;5.114;2023-04-27T11:09:12;102138.75;;;14.84;40.43
64886;BME280;51514;52.206;5.114;2023-04-27T11:11:43;102140.16;;;14.88;40.21
64886;BME280;51514;52.206;5.114;2023-04-27T11:14:13;102138.38;;;14.97;41.76
64886;BME280;51514;52.206;5.114;2023-04-27T11:16:45;102129.78;;;15.02;40.02
64886;BME280;51514;52.206;5.114;2023-04-27T11:19:10;102115.25;;;15.11;39.06
64886;BME280;51514;52.206;5.114;2023-04-27T11:21:36;102121.69;;;15.10;37.64
64886;BME280;51514;52.206;5.114;2023-04-27T11:24:06;102112.13;;;15.06;36.06
64886;BME280;51514;52.206;5.114;2023-04-27T11:26:32;102113.84;;;15.07;35.84
64886;BME280;51514;52.206;5.114;2023-04-27T11:31:26;102124.84;;;15.05;38.17
64886;BME280;51514;52.206;5.114;2023-04-27T11:33:53;102109.56;;;15.22;37.98
64886;BME280;51514;52.206;5.114;2023-04-27T11:36:20;102101.50;;;15.38;37.74
64886;BME280;51514;52.206;5.114;2023-04-27T11:38:47;102106.78;;;15.40;35.67
64886;BME280;51514;52.206;5.114;2023-04-27T11:41:12;102102.84;;;15.34;36.01
64886;BME280;51514;52.206;5.114;2023-04-27T11:43:42;102104.22;;;15.12;34.98
64886;BME280;51514;52.206;5.114;2023-04-27T11:46:10;102095.81;;;15.06;35.76
64886;BME280;51514;52.206;5.114;2023-04-27T11:48:37;102104.47;;;15.01;35.55
64886;BME280;51514;52.206;5.114;2023-04-27T11:51:03;102094.53;;;15.10;35.59
64886;BME280;51514;52.206;5.114;2023-04-27T11:53:33;102099.31;;;15.16;36.54
64886;BME280;51514;52.206;5.114;2023-04-27T11:56:03;102095.31;;;15.28;36.15
64886;BME280;51514;52.206;5.114;2023-04-27T11:58:41;102099.06;;;15.27;34.23
64886;BME280;51514;52.206;5.114;2023-04-27T12:01:07;102094.56;;;15.36;36.55
64886;BME280;51514;52.206;5.114;2023-04-27T12:03:33;102090.22;;;15.51;36.75
64886;BME280;51514;52.206;5.114;2023-04-27T12:05:58;102103.72;;;15.60;35.08
64886;BME280;51514;52.206;5.114;2023-04-27T12:08:23;102106.16;;;15.72;36.26
64886;BME280;51514;52.206;5.114;2023-04-27T12:10:49;102087.16;;;15.80;36.14
64886;BME280;51514;52.206;5.114;2023-04-27T12:13:15;102087.94;;;15.90;38.25
64886;BME280;51514;52.206;5.114;2023-04-27T12:15:40;102083.88;;;16.02;36.26
64886;BME280;51514;52.206;5.114;2023-04-27T12:18:06;102090.00;;;16.04;36.94
64886;BME280;51514;52.206;5.114;2023-04-27T12:20:35;102084.34;;;15.89;34.71
64886;BME280;51514;52.206;5.114;2023-04-27T12:23:00;102081.63;;;15.89;34.98
64886;BME280;51514;52.206;5.114;2023-04-27T12:25:26;102085.28;;;15.72;34.64
64886;BME280;51514;52.206;5.114;2023-04-27T12:27:51;102084.69;;;15.60;34.88
64886;BME280;51514;52.206;5.114;2023-04-27T12:30:17;102081.66;;;15.63;36.85
64886;BME280;51514;52.206;5.114;2023-04-27T12:32:42;102070.19;;;15.78;36.79
64886;BME280;51514;52.206;5.114;2023-04-27T12:35:08;102065.09;;;15.83;38.11
64886;BME280;51514;52.206;5.114;2023-04-27T12:37:34;102066.16;;;15.90;36.82
64886;BME280;51514;52.206;5.114;2023-04-27T12:40:00;102070.53;;;15.83;36.05
64886;BME280;51514;52.206;5.114;2023-04-27T12:42:26;102063.72;;;15.79;35.56
64886;BME280;51514;52.206;5.114;2023-04-27T12:45:00;102063.50;;;15.72;35.23
64886;BME280;51514;52.206;5.114;2023-04-27T12:47:26;102072.06;;;15.77;37.79
64886;BME280;51514;52.206;5.114;2023-04-27T12:49:51;102069.50;;;15.76;35.35
64886;BME280;51514;52.206;5.114;2023-04-27T12:52:16;102069.53;;;15.84;37.10
64886;BME280;51514;52.206;5.114;2023-04-27T12:54:42;102069.53;;;15.92;35.40
64886;BME280;51514;52.206;5.114;2023-04-27T12:57:08;102057.31;;;15.88;36.22
64886;BME280;51514;52.206;5.114;2023-04-27T12:59:36;102056.47;;;15.95;36.52
64886;BME280;51514;52.206;5.114;2023-04-27T13:02:02;102055.31;;;15.98;35.84
64886;BME280;51514;52.206;5.114;2023-04-27T13:04:30;102056.09;;;15.90;36.11
64886;BME280;51514;52.206;5.114;2023-04-27T13:06:56;102046.78;;;16.01;35.76